»·PEaware :: N1939W KSAN-KTUS

N1939W :: KSAN-KTUS

FLIGHT INFORMATION

Flight Status: Arrived
Operator: Privately registered:
United States
More flights under this callsign
Pilot: Ralph F. (3863)
Aircraft: BEECH AIRCRAFT SUPER KING AIR COMMUTER
(BE20)
More flights by this aircraft type
Origin: KSAN San Diego Intl-Lindbergh
United States
Destination: KTUS Tucson Intl
United States
More flights between these airports :: More routes between these airports
Route: ZZOOO1 IPL V66 GBN DINGO5
File this flight plan on PilotEdge
Remarks:
Altitude:
(Current/Filed)
15,000ft
Speed:
(Current/Filed)
220kts
Departed: 21-Sep-17 08:52 AM
Arrived: 21-Sep-17 10:19 AM
Distance/Time
Traveled:
318nm/1:26
Distance/Time
To Go:
Arrived

Flight Plot

Page will automatically refresh every two minutes.

Flight plan parsing failed; only flown route is shown


Map Options




Map Legend


Flown Route
Filed Route
Departure Airport
Arrival Airport
Navaid (VOR, NDB)
Fix

Horizontal Profiles

Position Reports

Time Latitude Longitude Heading Altitude Ground
Speed
21-Sep-17 08:39 32.734276 -117.185248 196 21ft 0kts
21-Sep-17 08:40 32.734276 -117.185248 196 21ft 0kts
21-Sep-17 08:41 32.734276 -117.185248 196 21ft 0kts
21-Sep-17 08:42 32.734276 -117.185248 196 21ft 0kts
21-Sep-17 08:43 32.734276 -117.185248 196 21ft 0kts
21-Sep-17 08:44 32.734276 -117.185248 196 21ft 0kts
21-Sep-17 08:45 32.734276 -117.185248 196 21ft 0kts
21-Sep-17 08:46 32.734276 -117.185248 196 21ft 0kts
21-Sep-17 08:47 32.734276 -117.185248 196 21ft 0kts
21-Sep-17 08:48 32.734276 -117.185248 196 21ft 0kts
21-Sep-17 08:49 32.734276 -117.185248 196 21ft 0kts
21-Sep-17 08:50 32.734234 -117.185257 185 21ft 1kts
21-Sep-17 08:51 32.733312 -117.183826 106 21ft 10kts
21-Sep-17 08:52 32.732258 -117.179496 106 21ft 14kts
21-Sep-17 08:53 32.731272 -117.175967 104 21ft 9kts
21-Sep-17 08:54 32.730967 -117.175442 153 21ft 0kts
21-Sep-17 08:55 32.730502 -117.175243 178 21ft 8kts
21-Sep-17 08:56 32.730416 -117.176840 284 21ft 54kts
21-Sep-17 08:57 32.741560 -117.219890 286 1518ft 163kts
21-Sep-17 08:58 32.748431 -117.272249 234 3296ft 166kts
21-Sep-17 08:59 32.709556 -117.269914 162 5573ft 153kts
21-Sep-17 09:00 32.666058 -117.255999 166 7909ft 168kts
21-Sep-17 09:01 32.631307 -117.229226 99 10301ft 164kts
21-Sep-17 09:02 32.625573 -117.177003 96 12680ft 156kts
21-Sep-17 09:03 32.620743 -117.126203 96 14462ft 174kts
21-Sep-17 09:04 32.614787 -117.060722 95 15006ft 227kts
21-Sep-17 09:05 32.607564 -116.980977 95 15004ft 257kts
21-Sep-17 09:06 32.605446 -116.896047 77 15000ft 271kts
21-Sep-17 09:07 32.623335 -116.808277 76 15000ft 274kts
21-Sep-17 09:08 32.635654 -116.719267 83 15000ft 274kts
21-Sep-17 09:09 32.644385 -116.629651 83 14999ft 274kts
21-Sep-17 09:10 32.653077 -116.539893 83 14999ft 274kts
21-Sep-17 09:11 32.661682 -116.450315 83 14999ft 274kts
21-Sep-17 09:12 32.670203 -116.361031 83 15002ft 274kts
21-Sep-17 09:13 32.678733 -116.270955 83 14995ft 274kts
21-Sep-17 09:14 32.687164 -116.181071 83 14999ft 274kts
21-Sep-17 09:15 32.695543 -116.091148 83 14999ft 274kts
21-Sep-17 09:16 32.703858 -116.001411 83 14999ft 274kts
21-Sep-17 09:17 32.712151 -115.911643 83 14999ft 274kts
21-Sep-17 09:18 32.720659 -115.821655 83 14999ft 274kts
21-Sep-17 09:19 32.728882 -115.731973 84 14999ft 274kts
21-Sep-17 09:20 32.737014 -115.641912 84 14999ft 274kts
21-Sep-17 09:21 32.745012 -115.552363 84 14999ft 274kts
21-Sep-17 09:22 32.750056 -115.462087 88 14999ft 274kts
21-Sep-17 09:23 32.752174 -115.371805 88 14999ft 274kts
21-Sep-17 09:24 32.754262 -115.281437 88 14999ft 274kts
21-Sep-17 09:25 32.756280 -115.190967 88 14999ft 274kts
21-Sep-17 09:26 32.758229 -115.100673 88 14999ft 274kts
21-Sep-17 09:27 32.760125 -115.010071 88 14999ft 274kts
21-Sep-17 09:28 32.761944 -114.919733 88 14999ft 274kts
21-Sep-17 09:29 32.763927 -114.829888 88 14999ft 274kts
21-Sep-17 09:30 32.765715 -114.739433 88 14999ft 274kts
21-Sep-17 09:31 32.767349 -114.648970 88 14999ft 274kts
21-Sep-17 09:32 32.768798 -114.558299 89 14999ft 274kts
21-Sep-17 09:33 32.770044 -114.467842 89 14999ft 274kts
21-Sep-17 09:34 32.771219 -114.377283 89 14999ft 274kts
21-Sep-17 09:35 32.772330 -114.286904 89 14999ft 274kts
21-Sep-17 09:36 32.773374 -114.196324 89 14999ft 274kts
21-Sep-17 09:37 32.774354 -114.106332 89 14999ft 274kts
21-Sep-17 09:38 32.775276 -114.015403 89 14999ft 274kts
21-Sep-17 09:39 32.782330 -113.925691 79 14999ft 274kts
21-Sep-17 09:40 32.795361 -113.836862 80 14999ft 274kts
21-Sep-17 09:41 32.808226 -113.747502 80 14999ft 274kts
21-Sep-17 09:42 32.820921 -113.658173 80 14999ft 274kts
21-Sep-17 09:43 32.833541 -113.568759 80 14999ft 274kts
21-Sep-17 09:44 32.846089 -113.479374 80 14999ft 274kts
21-Sep-17 09:45 32.858572 -113.389959 80 14999ft 274kts
21-Sep-17 09:46 32.870966 -113.300713 80 14999ft 274kts
21-Sep-17 09:47 32.883319 -113.211318 80 14999ft 274kts
21-Sep-17 09:48 32.895600 -113.121895 80 14999ft 274kts
21-Sep-17 09:49 32.907798 -113.032642 80 14999ft 274kts
21-Sep-17 09:50 32.919987 -112.942903 80 14999ft 274kts
21-Sep-17 09:51 32.932168 -112.853883 80 14999ft 274kts
21-Sep-17 09:52 32.944337 -112.764489 81 14999ft 274kts
21-Sep-17 09:53 32.953960 -112.674735 103 14979ft 275kts
21-Sep-17 09:54 32.924461 -112.591563 114 14999ft 274kts
21-Sep-17 09:55 32.892788 -112.509029 114 14999ft 274kts
21-Sep-17 09:56 32.861073 -112.426801 114 14999ft 274kts
21-Sep-17 09:57 32.829327 -112.344705 114 14999ft 274kts
21-Sep-17 09:58 32.797363 -112.262243 114 14999ft 274kts
21-Sep-17 09:59 32.765483 -112.180202 114 14999ft 274kts
21-Sep-17 10:00 32.734382 -112.100158 114 14315ft 253kts
21-Sep-17 10:01 32.705902 -112.027071 114 13506ft 240kts
21-Sep-17 10:02 32.677966 -111.955662 114 12709ft 239kts
21-Sep-17 10:03 32.649937 -111.884096 114 11914ft 240kts
21-Sep-17 10:04 32.622897 -111.814543 115 11550ft 232kts
21-Sep-17 10:05 32.595403 -111.744532 115 11000ft 226kts
21-Sep-17 10:06 32.569731 -111.679355 115 10999ft 214kts
21-Sep-17 10:07 32.541985 -111.617643 126 11000ft 212kts
21-Sep-17 10:08 32.506974 -111.562072 126 11000ft 211kts
21-Sep-17 10:09 32.471928 -111.506243 126 10999ft 211kts
21-Sep-17 10:10 32.437685 -111.451597 126 10998ft 201kts
21-Sep-17 10:11 32.405057 -111.399458 126 10999ft 195kts
21-Sep-17 10:12 32.377818 -111.343861 110 11000ft 199kts
21-Sep-17 10:13 32.357772 -111.280103 110 10151ft 204kts
21-Sep-17 10:14 32.339202 -111.220625 110 9138ft 184kts
21-Sep-17 10:15 32.321888 -111.165071 110 8132ft 181kts
21-Sep-17 10:16 32.301875 -111.109031 121 7142ft 189kts
21-Sep-17 10:17 32.269103 -111.061602 129 6138ft 182kts
21-Sep-17 10:18 32.244446 -111.016302 120 5699ft 179kts
21-Sep-17 10:19 32.218576 -110.964403 120 4701ft 174kts
21-Sep-17 10:20 32.193623 -110.920918 124 4001ft 146kts
21-Sep-17 10:21 32.156227 -110.922288 190 3733ft 123kts
21-Sep-17 10:22 32.132410 -110.941011 225 2720ft 86kts
21-Sep-17 10:23 32.124302 -110.952470 337 2647ft 20kts
21-Sep-17 10:24 32.125914 -110.955552 182 2647ft 10kts
21-Sep-17 10:25 32.125405 -110.955564 180 2647ft 0kts

Navigation Log

Ident Type
Flight plan parsing failed, navigation log unavailable